Columbia Regional Airport


Codes: KCOU/COU
Name: Columbia Regional Airport
City: Columbia
Country: United States
Elevation: 889 ft.
Wikipedia:

Photos at Columbia Regional Airport


   Photos courtesy of SpottingLog. You can add your own sightings and photos by signing up for a free trial today.



No photos found.

Weather at Columbia Regional Airport


Time (UTC)DescriptionTempratureWindCloud coverageVisibilityPressureHumidity
17-Jun-2024 06:00Few Clouds26°C9 mph, S22%10000m1013hPa76%
17-Jun-2024 09:00Clear Sky23°C7 mph, S5%10000m1012hPa81%
17-Jun-2024 12:00Clear Sky22°C7 mph, S4%10000m1012hPa80%
17-Jun-2024 15:00Clear Sky27°C13 mph, S0%10000m1012hPa69%
17-Jun-2024 18:00Clear Sky31°C13 mph, S0%10000m1012hPa50%
17-Jun-2024 21:00Clear Sky32°C11 mph, S2%10000m1010hPa54%
18-Jun-2024 00:00Clear Sky28°C16 mph, S0%10000m1010hPa73%
18-Jun-2024 03:00Light Rain24°C13 mph, S48%10000m1012hPa86%
18-Jun-2024 06:00Broken Clouds23°C13 mph, S74%10000m1012hPa85%
18-Jun-2024 09:00Clear Sky23°C11 mph, S1%10000m1012hPa77%
18-Jun-2024 12:00Clear Sky23°C11 mph, S0%10000m1013hPa83%
18-Jun-2024 15:00Clear Sky27°C16 mph, S0%10000m1014hPa68%
18-Jun-2024 18:00Light Rain29°C16 mph, S5%8395m1014hPa66%
18-Jun-2024 21:00Light Rain28°C16 mph, S56%10000m1014hPa75%
19-Jun-2024 00:00Light Rain26°C11 mph, S78%10000m1014hPa73%
19-Jun-2024 03:00Scattered Clouds23°C13 mph, S33%10000m1016hPa68%
19-Jun-2024 06:00Few Clouds20°C7 mph, SE17%10000m1018hPa83%
19-Jun-2024 09:00Clear Sky19°C4 mph, SE0%10000m1019hPa95%
19-Jun-2024 12:00Clear Sky21°C4 mph, S1%10000m1021hPa90%
19-Jun-2024 15:00Broken Clouds24°C7 mph, S63%10000m1022hPa76%
19-Jun-2024 18:00Scattered Clouds28°C7 mph, S46%10000m1022hPa60%
19-Jun-2024 21:00Light Rain29°C4 mph, S4%10000m1020hPa56%
20-Jun-2024 00:00Light Rain25°C4 mph, SE4%10000m1021hPa83%
20-Jun-2024 03:00Overcast Clouds21°C7 mph, SE89%10000m1023hPa90%
20-Jun-2024 06:00Overcast Clouds21°C4 mph, S95%10000m1023hPa94%
20-Jun-2024 09:00Overcast Clouds21°C2 mph, SW100%10000m1024hPa91%
20-Jun-2024 12:00Overcast Clouds22°C0 mph, NE100%10000m1024hPa87%
20-Jun-2024 15:00Overcast Clouds26°C4 mph, SE99%10000m1025hPa66%
20-Jun-2024 18:00Overcast Clouds29°C7 mph, SE100%10000m1024hPa54%
20-Jun-2024 21:00Overcast Clouds29°C4 mph, S100%10000m1023hPa56%
21-Jun-2024 00:00Overcast Clouds28°C2 mph, NE100%10000m1021hPa67%
21-Jun-2024 03:00Overcast Clouds23°C4 mph, NE100%10000m1022hPa73%
21-Jun-2024 06:00Overcast Clouds22°C2 mph, SE100%10000m1023hPa78%
21-Jun-2024 09:00Overcast Clouds22°C2 mph, SW94%10000m1023hPa78%
21-Jun-2024 12:00Overcast Clouds22°C4 mph, S93%10000m1023hPa81%
21-Jun-2024 15:00Overcast Clouds26°C7 mph, S100%10000m1023hPa71%
21-Jun-2024 18:00Overcast Clouds30°C7 mph, SW100%10000m1021hPa54%
21-Jun-2024 21:00Overcast Clouds31°C2 mph, W99%10000m1019hPa48%
22-Jun-2024 00:00Overcast Clouds26°C4 mph, S93%10000m1018hPa67%
22-Jun-2024 03:00Overcast Clouds24°C2 mph, SE89%10000m1018hPa79%